createdAt,value
2023-05-22T00:00:39.376Z,100280.28
2023-05-22T00:03:08.387Z,100278.97
2023-05-22T00:05:38.833Z,100276.19
2023-05-22T00:08:10.736Z,100279.63
2023-05-22T00:10:38.491Z,100275.53
2023-05-22T00:13:06.216Z,100275.69
2023-05-22T00:15:35.418Z,100273.88
2023-05-22T00:18:03.955Z,100276.56
2023-05-22T00:20:31.537Z,100272.00
2023-05-22T00:23:01.132Z,100267.03
2023-05-22T00:25:28.723Z,100270.41
2023-05-22T00:27:56.299Z,100273.25
2023-05-22T00:30:23.869Z,100272.41
2023-05-22T00:32:52.778Z,100269.41
2023-05-22T00:35:20.535Z,100269.09
2023-05-22T00:37:48.049Z,100263.94
2023-05-22T00:40:16.627Z,100273.66
2023-05-22T00:42:44.404Z,100267.63
2023-05-22T00:45:12.696Z,100257.31
2023-05-22T00:47:40.477Z,100259.72
2023-05-22T00:50:11.396Z,100257.25
2023-05-22T00:52:41.272Z,100265.91
2023-05-22T00:55:10.489Z,100265.41
2023-05-22T00:57:40.252Z,100268.13
2023-05-22T01:00:10.884Z,100270.16
2023-05-22T01:02:38.688Z,100266.25
2023-05-22T01:05:07.855Z,100267.66
2023-05-22T01:07:37.648Z,100269.69
2023-05-22T01:10:07.107Z,100262.41
2023-05-22T01:12:39.742Z,100267.00
2023-05-22T01:15:13.980Z,100266.53
2023-05-22T01:17:48.174Z,100274.81
2023-05-22T01:20:22.379Z,100272.94
2023-05-22T01:23:25.374Z,100272.22
2023-05-22T01:26:04.770Z,100275.97
2023-05-22T01:28:43.652Z,100279.41
2023-05-22T01:31:14.595Z,100275.75
2023-05-22T01:33:43.621Z,100274.00
2023-05-22T01:36:12.692Z,100281.28
2023-05-22T01:38:40.271Z,100271.22
2023-05-22T01:41:07.840Z,100269.09
2023-05-22T01:43:38.443Z,100280.47
2023-05-22T01:46:06.291Z,100271.47
2023-05-22T01:48:36.297Z,100280.09
2023-05-22T01:51:06.721Z,100276.13
2023-05-22T01:53:36.512Z,100281.03
2023-05-22T01:56:06.204Z,100276.94
2023-05-22T01:58:40.018Z,100276.03
2023-05-22T02:01:09.240Z,100269.00
2023-05-22T02:03:40.923Z,100281.16
2023-05-22T02:06:10.164Z,100275.06
2023-05-22T02:08:38.726Z,100270.41
2023-05-22T02:11:06.689Z,100279.19
2023-05-22T02:13:34.637Z,100279.50
2023-05-22T02:16:03.898Z,100275.03
2023-05-22T02:18:31.725Z,100275.28
2023-05-22T02:21:02.703Z,100269.84
2023-05-22T02:23:30.269Z,100273.44
2023-05-22T02:25:57.917Z,100277.97
2023-05-22T02:28:25.535Z,100280.31
2023-05-22T02:30:53.134Z,100283.28
2023-05-22T02:33:20.724Z,100282.63
2023-05-22T02:35:48.278Z,100279.16
2023-05-22T02:38:17.138Z,100277.44
2023-05-22T02:40:44.792Z,100272.19
2023-05-22T02:43:12.343Z,100268.59
2023-05-22T02:45:39.828Z,100268.47
2023-05-22T02:48:07.521Z,100270.50
2023-05-22T02:50:35.055Z,100273.59
2023-05-22T02:53:02.542Z,100278.59
2023-05-22T02:55:31.442Z,100272.41
2023-05-22T02:57:58.946Z,100276.97
2023-05-22T03:00:26.524Z,100270.34
2023-05-22T03:02:54.163Z,100278.78
2023-05-22T03:05:21.840Z,100266.91
2023-05-22T03:07:49.908Z,100276.69
2023-05-22T03:10:17.401Z,100272.41
2023-05-22T03:12:46.267Z,100269.84
2023-05-22T03:15:13.764Z,100265.34
2023-05-22T03:17:41.373Z,100267.88
2023-05-22T03:20:10.135Z,100271.75
2023-05-22T03:22:37.921Z,100269.03
2023-05-22T03:25:09.273Z,100261.34
2023-05-22T03:27:36.993Z,100272.22
2023-05-22T03:30:07.338Z,100272.72
2023-05-22T03:32:37.323Z,100275.63
2023-05-22T03:35:06.097Z,100272.75
2023-05-22T03:37:33.826Z,100282.66
2023-05-22T03:40:01.349Z,100284.66
2023-05-22T03:42:28.852Z,100272.16
2023-05-22T03:44:56.354Z,100283.03
2023-05-22T03:47:25.232Z,100283.84
2023-05-22T03:49:52.760Z,100279.75
2023-05-22T03:52:20.398Z,100279.75
2023-05-22T03:54:47.970Z,100270.88
2023-05-22T03:57:16.316Z,100278.25
2023-05-22T03:59:43.791Z,100273.22
2023-05-22T04:02:12.872Z,100272.75
2023-05-22T04:04:41.875Z,100276.47
2023-05-22T04:07:09.445Z,100274.13
2023-05-22T04:09:36.996Z,100273.53
2023-05-22T04:12:05.145Z,100272.34
2023-05-22T04:14:32.772Z,100273.66
2023-05-22T04:17:00.478Z,100276.34
2023-05-22T04:19:29.948Z,100280.81
2023-05-22T04:21:59.330Z,100280.66
2023-05-22T04:24:27.537Z,100285.56
2023-05-22T04:26:55.068Z,100283.72
2023-05-22T04:29:22.777Z,100287.31
2023-05-22T04:31:50.369Z,100283.84
2023-05-22T04:34:18.493Z,100277.84
2023-05-22T04:36:46.974Z,100291.91
2023-05-22T04:39:15.970Z,100299.41
2023-05-22T04:41:43.447Z,100297.06
2023-05-22T04:44:10.958Z,100295.75
2023-05-22T04:46:38.634Z,100294.22
2023-05-22T04:49:06.203Z,100297.50
2023-05-22T04:51:36.008Z,100298.34
2023-05-22T04:54:03.565Z,100305.22
2023-05-22T04:56:36.768Z,100309.06
2023-05-22T04:59:08.984Z,100304.38
2023-05-22T05:01:37.863Z,100304.47
2023-05-22T05:04:05.978Z,100309.88
2023-05-22T05:06:34.662Z,100310.66
2023-05-22T05:09:02.226Z,100314.63
2023-05-22T05:11:29.835Z,100312.84
2023-05-22T05:13:58.655Z,100310.13
2023-05-22T05:16:26.355Z,100313.53
2023-05-22T05:18:55.569Z,100316.13
2023-05-22T05:21:27.706Z,100312.84
2023-05-22T05:23:55.291Z,100311.22
2023-05-22T05:26:24.045Z,100316.78
2023-05-22T05:28:51.623Z,100313.06
2023-05-22T05:31:20.872Z,100320.25
2023-05-22T05:33:48.880Z,100316.34
2023-05-22T05:36:17.071Z,100311.31
2023-05-22T05:38:44.574Z,100314.56
2023-05-22T05:41:12.088Z,100316.31
2023-05-22T05:43:39.609Z,100328.53
2023-05-22T05:46:07.505Z,100330.09
2023-05-22T05:48:36.436Z,100331.47
2023-05-22T05:51:04.985Z,100332.16
2023-05-22T05:53:32.792Z,100333.38
2023-05-22T05:56:00.332Z,100337.53
2023-05-22T05:58:27.851Z,100332.88
2023-05-22T06:00:55.457Z,100329.69
2023-05-22T06:03:25.508Z,100332.00
2023-05-22T06:05:54.648Z,100328.31
2023-05-22T06:08:22.531Z,100332.97
2023-05-22T06:10:50.064Z,100332.78
2023-05-22T06:13:17.562Z,100334.63
2023-05-22T06:15:45.105Z,100331.72
2023-05-22T06:18:13.629Z,100331.81
2023-05-22T06:20:41.431Z,100331.38
2023-05-22T06:23:11.004Z,100336.03
2023-05-22T06:25:39.785Z,100334.34
2023-05-22T06:28:07.348Z,100334.16
2023-05-22T06:30:40.135Z,100336.44
2023-05-22T06:33:08.089Z,100340.75
2023-05-22T06:35:35.739Z,100326.31
2023-05-22T06:38:03.270Z,100336.75
2023-05-22T06:40:32.196Z,100327.31
2023-05-22T06:42:59.833Z,100335.50
2023-05-22T06:45:27.355Z,100331.19
2023-05-22T06:47:55.475Z,100336.19
2023-05-22T06:50:23.232Z,100339.28
2023-05-22T06:52:50.825Z,100342.03
2023-05-22T06:55:18.375Z,100344.28
2023-05-22T06:57:47.206Z,100340.84
2023-05-22T07:00:15.467Z,100341.72
2023-05-22T07:02:43.181Z,100350.91
2023-05-22T07:05:10.736Z,100343.94
2023-05-22T07:07:38.302Z,100345.09
2023-05-22T07:10:07.083Z,100349.00
2023-05-22T07:12:34.679Z,100356.63
2023-05-22T07:15:03.616Z,100351.78
2023-05-22T07:17:31.750Z,100355.06
2023-05-22T07:19:59.269Z,100352.16
2023-05-22T07:22:26.986Z,100350.63
2023-05-22T07:24:54.508Z,100347.84
2023-05-22T07:27:22.018Z,100348.16
2023-05-22T07:29:49.850Z,100340.66
2023-05-22T07:32:18.724Z,100342.31
2023-05-22T07:34:46.256Z,100347.28
2023-05-22T07:37:14.759Z,100349.53
2023-05-22T07:39:42.272Z,100343.84
2023-05-22T07:42:10.670Z,100341.66
2023-05-22T07:44:38.232Z,100340.75
2023-05-22T07:47:06.409Z,100346.03
2023-05-22T07:49:35.338Z,100336.03
2023-05-22T07:52:02.910Z,100343.66
2023-05-22T07:54:30.536Z,100348.53
2023-05-22T07:56:58.073Z,100351.25
2023-05-22T07:59:25.910Z,100355.13
2023-05-22T08:01:53.739Z,100352.16
2023-05-22T08:04:21.759Z,100340.50
2023-05-22T08:06:50.803Z,100345.38
2023-05-22T08:09:18.690Z,100344.31
2023-05-22T08:11:46.240Z,100351.66
2023-05-22T08:14:13.751Z,100342.72
2023-05-22T08:16:41.310Z,100349.84
2023-05-22T08:19:09.314Z,100347.13
2023-05-22T08:21:37.467Z,100344.69
2023-05-22T08:24:07.032Z,100341.72
2023-05-22T08:26:34.682Z,100349.84
2023-05-22T08:29:02.534Z,100345.53
2023-05-22T08:31:30.249Z,100342.25
2023-05-22T08:34:02.489Z,100345.22
2023-05-22T08:36:31.393Z,100342.50
2023-05-22T08:38:58.920Z,100339.22
2023-05-22T08:41:27.984Z,100339.25
2023-05-22T08:43:55.516Z,100333.56
2023-05-22T08:46:26.278Z,100335.19
2023-05-22T08:48:56.674Z,100341.13
2023-05-22T08:51:28.045Z,100335.13
2023-05-22T08:53:57.410Z,100326.44
2023-05-22T08:56:26.783Z,100329.72
2023-05-22T08:58:58.579Z,100326.38
2023-05-22T09:01:26.375Z,100321.78
2023-05-22T09:03:54.015Z,100323.06
2023-05-22T09:06:21.617Z,100326.00
2023-05-22T09:08:51.403Z,100326.63
2023-05-22T09:11:19.252Z,100314.38
2023-05-22T09:13:46.832Z,100315.13
2023-05-22T09:16:16.469Z,100327.34
2023-05-22T09:18:44.239Z,100321.91
2023-05-22T09:21:28.878Z,100310.97
2023-05-22T09:24:01.026Z,100320.72
2023-05-22T09:26:29.124Z,100317.16
2023-05-22T09:28:57.080Z,100322.34
2023-05-22T09:31:26.126Z,100316.91
2023-05-22T09:33:54.298Z,100312.50
2023-05-22T09:36:22.020Z,100311.94
2023-05-22T09:38:49.649Z,100316.16
2023-05-22T09:41:22.140Z,100317.84
2023-05-22T09:43:51.253Z,100312.88
2023-05-22T09:46:18.842Z,100309.03
2023-05-22T09:48:52.384Z,100311.44
2023-05-22T09:51:21.060Z,100315.75
2023-05-22T09:53:49.950Z,100308.22
2023-05-22T09:56:30.757Z,100315.75
2023-05-22T09:59:06.614Z,100310.78
2023-05-22T10:01:34.790Z,100307.97
2023-05-22T10:04:03.825Z,100309.16
2023-05-22T10:06:33.893Z,100311.00
2023-05-22T10:09:05.865Z,100313.94
2023-05-22T10:11:34.081Z,100322.16
2023-05-22T10:14:02.757Z,100309.84
2023-05-22T10:16:31.216Z,100312.28
2023-05-22T10:18:59.096Z,100317.13
2023-05-22T10:21:29.233Z,100314.00
2023-05-22T10:23:56.811Z,100301.38
2023-05-22T10:26:24.917Z,100302.25
2023-05-22T10:28:54.473Z,100302.22
2023-05-22T10:31:28.212Z,100298.41
2023-05-22T10:33:58.361Z,100296.16
2023-05-22T10:36:38.196Z,100294.09
2023-05-22T10:39:13.466Z,100296.53
2023-05-22T10:41:41.209Z,100278.31
2023-05-22T10:44:08.724Z,100281.63
2023-05-22T10:46:37.312Z,100279.25
2023-05-22T10:49:04.850Z,100271.81
2023-05-22T10:51:35.233Z,100275.38
2023-05-22T10:54:05.183Z,100274.94
2023-05-22T10:56:36.203Z,100268.75
2023-05-22T10:59:07.314Z,100266.09
2023-05-22T11:01:37.844Z,100258.13
2023-05-22T11:04:12.539Z,100260.66
2023-05-22T11:06:42.476Z,100266.00
2023-05-22T11:09:29.112Z,100266.25
2023-05-22T11:12:16.896Z,100262.94
2023-05-22T11:14:48.559Z,100265.88
2023-05-22T11:17:18.776Z,100262.81
2023-05-22T11:19:50.175Z,100262.13
2023-05-22T11:22:19.804Z,100263.22
2023-05-22T11:24:47.358Z,100251.09
2023-05-22T11:27:15.131Z,100250.63
2023-05-22T11:29:44.394Z,100249.56
2023-05-22T11:32:12.069Z,100249.56
2023-05-22T11:34:40.635Z,100249.09
2023-05-22T11:37:08.493Z,100247.50
2023-05-22T11:39:37.348Z,100251.88
2023-05-22T11:42:05.318Z,100241.00
2023-05-22T11:44:32.869Z,100238.13
2023-05-22T11:47:00.643Z,100235.94
2023-05-22T11:49:28.966Z,100234.91
2023-05-22T11:51:56.475Z,100233.41
2023-05-22T11:54:23.979Z,100235.38
2023-05-22T11:56:52.906Z,100226.06
2023-05-22T11:59:22.229Z,100215.31
2023-05-22T12:01:50.439Z,100221.97
2023-05-22T12:04:18.082Z,100221.97
2023-05-22T12:06:45.762Z,100224.56
2023-05-22T12:09:13.341Z,100217.63
2023-05-22T12:11:40.948Z,100220.91
2023-05-22T12:14:12.570Z,100215.59
2023-05-22T12:16:40.675Z,100216.59
2023-05-22T12:19:08.811Z,100209.13
2023-05-22T12:21:36.634Z,100208.63
2023-05-22T12:24:05.669Z,100208.41
2023-05-22T12:26:33.693Z,100208.41
2023-05-22T12:29:01.408Z,100206.19
2023-05-22T12:31:35.774Z,100202.75
2023-05-22T12:34:05.205Z,100200.63
2023-05-22T12:36:34.845Z,100188.38
2023-05-22T12:39:03.653Z,100189.78
2023-05-22T12:41:31.181Z,100185.91
2023-05-22T12:43:58.704Z,100192.41
2023-05-22T12:46:26.264Z,100185.59
2023-05-22T12:48:55.377Z,100188.78
2023-05-22T12:51:24.047Z,100187.94
2023-05-22T12:53:51.604Z,100183.75
2023-05-22T12:56:19.150Z,100177.59
2023-05-22T12:58:46.678Z,100182.22
2023-05-22T13:01:14.319Z,100180.50
2023-05-22T13:03:41.926Z,100186.28
2023-05-22T13:06:12.199Z,100180.06
2023-05-22T13:08:39.759Z,100182.06
2023-05-22T13:11:07.304Z,100177.56
2023-05-22T13:13:34.871Z,100176.22
2023-05-22T13:16:02.725Z,100178.34
2023-05-22T13:18:30.517Z,100181.69
2023-05-22T13:20:59.952Z,100175.44
2023-05-22T13:23:28.909Z,100181.34
2023-05-22T13:25:56.426Z,100171.09
2023-05-22T13:28:23.979Z,100174.25
2023-05-22T13:30:51.459Z,100178.47
2023-05-22T13:33:18.991Z,100178.78
2023-05-22T13:35:46.578Z,100174.72
2023-05-22T13:38:14.116Z,100176.38
2023-05-22T13:40:42.983Z,100168.16
2023-05-22T13:43:10.500Z,100176.41
2023-05-22T13:45:38.222Z,100176.41
2023-05-22T13:48:05.993Z,100179.28
2023-05-22T13:50:33.521Z,100168.25
2023-05-22T13:53:01.073Z,100177.78
2023-05-22T13:55:28.721Z,100172.84
2023-05-22T13:57:57.585Z,100168.44
2023-05-22T14:00:25.195Z,100164.66
2023-05-22T14:02:52.861Z,100167.75
2023-05-22T14:05:20.763Z,100167.22
2023-05-22T14:07:48.304Z,100164.78
2023-05-22T14:10:16.089Z,100158.88
2023-05-22T14:12:43.608Z,100150.34
2023-05-22T14:15:12.863Z,100149.00
2023-05-22T14:17:40.351Z,100147.84
2023-05-22T14:20:08.819Z,100144.38
2023-05-22T14:22:47.901Z,100148.41
2023-05-22T14:25:23.797Z,100137.50
2023-05-22T14:27:51.353Z,100135.00
2023-05-22T14:30:20.315Z,100124.78
2023-05-22T14:32:48.671Z,100129.28
2023-05-22T14:35:16.526Z,100125.63
2023-05-22T14:37:44.749Z,100128.25
2023-05-22T14:40:12.654Z,100130.31
2023-05-22T14:42:40.166Z,100123.66
2023-05-22T14:45:08.595Z,100133.94
2023-05-22T14:47:37.457Z,100140.97
2023-05-22T14:50:18.175Z,100153.59
2023-05-22T14:52:47.001Z,100162.34
2023-05-22T14:55:14.521Z,100157.13
2023-05-22T14:57:42.042Z,100158.16
2023-05-22T15:00:10.833Z,100158.59
2023-05-22T15:02:40.100Z,100162.13
2023-05-22T15:05:08.349Z,100164.53
2023-05-22T15:07:43.973Z,100160.00
2023-05-22T15:10:12.968Z,100176.44
2023-05-22T15:12:40.762Z,100168.44
2023-05-22T15:15:09.566Z,100173.78
2023-05-22T15:17:37.154Z,100178.66
2023-05-22T15:20:07.624Z,100170.66
2023-05-22T15:22:35.186Z,100159.19
2023-05-22T15:25:06.215Z,100153.66
2023-05-22T15:27:34.569Z,100154.50
2023-05-22T15:30:02.324Z,100159.22
2023-05-22T15:32:30.656Z,100152.41
2023-05-22T15:34:58.519Z,100157.03
2023-05-22T15:37:29.164Z,100141.97
2023-05-22T15:39:58.383Z,100138.94
2023-05-22T15:42:25.908Z,100133.16
2023-05-22T15:44:53.450Z,100124.53
2023-05-22T15:47:21.039Z,100121.06
2023-05-22T15:49:48.588Z,100121.59
2023-05-22T15:52:16.315Z,100114.38
2023-05-22T15:54:45.196Z,100125.41
2023-05-22T15:57:12.692Z,100117.16
2023-05-22T15:59:40.270Z,100129.00
2023-05-22T16:02:08.428Z,100138.38
2023-05-22T16:04:36.100Z,100141.94
2023-05-22T16:07:03.788Z,100144.50
2023-05-22T16:09:32.756Z,100149.44
2023-05-22T16:12:01.893Z,100149.56
2023-05-22T16:14:29.464Z,100164.44
2023-05-22T16:16:57.614Z,100164.13
2023-05-22T16:19:25.229Z,100164.44
2023-05-22T16:21:52.847Z,100166.41
2023-05-22T16:24:20.415Z,100164.84
2023-05-22T16:26:47.956Z,100154.59
2023-05-22T16:29:20.343Z,100159.56
2023-05-22T16:31:47.892Z,100163.53
2023-05-22T16:34:15.496Z,100161.59
2023-05-22T16:36:43.146Z,100165.88
2023-05-22T16:39:10.833Z,100173.53
2023-05-22T16:41:38.679Z,100181.44
2023-05-22T16:44:06.276Z,100184.91
2023-05-22T16:46:35.327Z,100197.28
2023-05-22T16:49:03.030Z,100200.50
2023-05-22T16:51:30.812Z,100206.31
2023-05-22T16:53:58.336Z,100205.97
2023-05-22T16:56:25.948Z,100203.63
2023-05-22T16:58:53.453Z,100201.25
2023-05-22T17:01:21.833Z,100195.72
2023-05-22T17:03:50.969Z,100196.88
2023-05-22T17:06:20.926Z,100204.69
2023-05-22T17:08:48.792Z,100209.72
2023-05-22T17:11:16.334Z,100222.81
2023-05-22T17:13:43.956Z,100228.72
2023-05-22T17:16:11.492Z,100249.63
2023-05-22T17:18:39.078Z,100256.81
2023-05-22T17:21:09.069Z,100272.19
2023-05-22T17:23:37.233Z,100280.22
2023-05-22T17:26:05.003Z,100298.78
2023-05-22T17:28:32.628Z,100304.06
2023-05-22T17:31:01.607Z,100304.41
2023-05-22T17:33:29.253Z,100305.88
2023-05-22T17:35:56.799Z,100309.06
2023-05-22T17:38:26.076Z,100316.84
2023-05-22T17:40:53.772Z,100320.75
2023-05-22T17:43:21.465Z,100329.22
2023-05-22T17:45:50.715Z,100332.44
2023-05-22T17:48:23.313Z,100338.56
2023-05-22T17:50:51.991Z,100329.91
2023-05-22T17:53:20.573Z,100325.34
2023-05-22T17:55:52.157Z,100326.25
2023-05-22T17:58:20.490Z,100326.84
2023-05-22T18:00:48.932Z,100331.25
2023-05-22T18:03:20.121Z,100329.59
2023-05-22T18:05:48.223Z,100331.41
2023-05-22T18:08:16.004Z,100334.13
2023-05-22T18:10:43.753Z,100339.78
2023-05-22T18:13:12.688Z,100333.34
2023-05-22T18:15:40.645Z,100323.66
2023-05-22T18:18:09.555Z,100325.34
2023-05-22T18:20:38.755Z,100321.16
2023-05-22T18:23:06.474Z,100323.56
2023-05-22T18:25:33.996Z,100328.28
2023-05-22T18:28:01.534Z,100324.38
2023-05-22T18:30:30.496Z,100315.34
2023-05-22T18:32:58.115Z,100317.94
2023-05-22T18:35:25.791Z,100325.75
2023-05-22T18:37:53.562Z,100322.22
2023-05-22T18:40:21.161Z,100326.88
2023-05-22T18:42:48.719Z,100329.88
2023-05-22T18:45:16.304Z,100334.69
2023-05-22T18:47:45.222Z,100333.13
2023-05-22T18:50:13.301Z,100343.84
2023-05-22T18:55:09.092Z,100331.06
2023-05-22T18:57:36.869Z,100325.38
2023-05-22T19:00:04.913Z,100327.13
2023-05-22T19:02:32.473Z,100323.16
2023-05-22T19:05:01.472Z,100321.00
2023-05-22T19:07:29.074Z,100313.97
2023-05-22T19:09:56.604Z,100319.59
2023-05-22T19:12:24.683Z,100317.94
2023-05-22T19:14:52.451Z,100310.44
2023-05-22T19:17:19.978Z,100310.09
2023-05-22T19:19:47.539Z,100313.22
2023-05-22T19:22:18.070Z,100315.63
2023-05-22T19:24:45.747Z,100316.00
2023-05-22T19:27:13.328Z,100324.09
2023-05-22T19:29:40.875Z,100316.34
2023-05-22T19:32:08.510Z,100314.66
2023-05-22T19:34:36.163Z,100314.22
2023-05-22T19:37:03.874Z,100318.44
2023-05-22T19:39:32.889Z,100330.94
2023-05-22T19:42:00.579Z,100329.22
2023-05-22T19:44:28.064Z,100323.13
2023-05-22T19:46:56.582Z,100326.50
2023-05-22T19:49:24.225Z,100328.88
2023-05-22T19:51:53.028Z,100343.84
2023-05-22T19:54:22.367Z,100345.34
2023-05-22T19:56:51.270Z,100338.50
2023-05-22T19:59:18.828Z,100348.06
2023-05-22T20:01:46.511Z,100352.56
2023-05-22T20:04:14.298Z,100353.09
2023-05-22T20:06:42.120Z,100352.03
2023-05-22T20:09:10.091Z,100356.94
2023-05-22T20:11:37.903Z,100354.25
2023-05-22T20:14:07.593Z,100356.84
2023-05-22T20:16:35.225Z,100352.22
2023-05-22T20:19:03.761Z,100359.03
2023-05-22T20:21:32.096Z,100357.22
2023-05-22T20:23:59.650Z,100365.94
2023-05-22T20:26:27.638Z,100364.31
2023-05-22T20:28:55.221Z,100373.56
2023-05-22T20:31:24.148Z,100376.16
2023-05-22T20:33:51.671Z,100386.06
2023-05-22T20:36:19.201Z,100382.63
2023-05-22T20:38:46.721Z,100384.94
2023-05-22T20:41:14.228Z,100396.38
2023-05-22T20:43:43.205Z,100385.53
2023-05-22T20:46:11.365Z,100388.69
2023-05-22T20:48:46.651Z,100383.28
2023-05-22T20:51:15.516Z,100395.63
2023-05-22T20:53:43.049Z,100386.06
2023-05-22T20:56:10.625Z,100400.84
2023-05-22T20:58:39.174Z,100404.06
2023-05-22T21:01:06.976Z,100398.38
2023-05-22T21:03:34.491Z,100395.28
2023-05-22T21:06:03.544Z,100390.56
2023-05-22T21:08:31.111Z,100393.84
2023-05-22T21:10:58.648Z,100392.00
2023-05-22T21:13:26.180Z,100400.06
2023-05-22T21:15:53.749Z,100396.44
2023-05-22T21:18:21.939Z,100396.66
2023-05-22T21:20:49.477Z,100389.41
2023-05-22T21:23:18.341Z,100399.72
2023-05-22T21:25:45.867Z,100397.88
2023-05-22T21:28:13.486Z,100395.91
2023-05-22T21:30:41.473Z,100391.47
2023-05-22T21:33:09.273Z,100393.22
2023-05-22T21:35:37.064Z,100400.53
2023-05-22T21:38:04.585Z,100399.84
2023-05-22T21:40:33.456Z,100391.59
2023-05-22T21:43:01.023Z,100408.56
2023-05-22T21:45:28.593Z,100414.28
2023-05-22T21:47:56.193Z,100411.13
2023-05-22T21:50:23.726Z,100411.50
2023-05-22T21:52:51.287Z,100411.84
2023-05-22T21:55:18.757Z,100411.22
2023-05-22T21:57:47.650Z,100410.88
2023-05-22T22:00:17.124Z,100417.16
2023-05-22T22:02:44.737Z,100415.31
2023-05-22T22:05:12.556Z,100412.00
2023-05-22T22:07:40.077Z,100413.00
2023-05-22T22:10:08.632Z,100416.28
2023-05-22T22:12:36.160Z,100421.03
2023-05-22T22:15:05.490Z,100418.34
2023-05-22T22:17:34.759Z,100422.22
2023-05-22T22:20:02.465Z,100428.38
2023-05-22T22:22:30.119Z,100421.78
2023-05-22T22:24:57.698Z,100422.56
2023-05-22T22:27:25.449Z,100424.28
2023-05-22T22:29:52.993Z,100420.19
2023-05-22T22:32:21.891Z,100429.94
2023-05-22T22:34:53.618Z,100427.38
2023-05-22T22:37:21.924Z,100430.47
2023-05-22T22:39:49.442Z,100435.56
2023-05-22T22:42:16.940Z,100437.84
2023-05-22T22:44:44.551Z,100446.69
2023-05-22T22:47:12.322Z,100452.97
2023-05-22T22:49:41.284Z,100459.94
2023-05-22T22:52:08.780Z,100441.94
2023-05-22T22:54:36.372Z,100450.41
2023-05-22T22:57:04.026Z,100458.13
2023-05-22T22:59:31.764Z,100460.22
2023-05-22T23:01:59.550Z,100461.53
2023-05-22T23:04:29.517Z,100470.53
2023-05-22T23:06:58.561Z,100464.78
2023-05-22T23:09:26.315Z,100462.44
2023-05-22T23:11:53.814Z,100469.50
2023-05-22T23:14:21.344Z,100463.72
2023-05-22T23:16:48.994Z,100464.13
2023-05-22T23:19:16.498Z,100468.03
2023-05-22T23:21:44.104Z,100464.63
2023-05-22T23:24:12.968Z,100466.94
2023-05-22T23:26:40.520Z,100471.84
2023-05-22T23:29:08.147Z,100470.78
2023-05-22T23:31:36.480Z,100472.56
2023-05-22T23:34:04.073Z,100464.59
2023-05-22T23:36:32.515Z,100468.59
2023-05-22T23:39:00.033Z,100466.19
2023-05-22T23:41:28.958Z,100475.88
2023-05-22T23:43:56.589Z,100468.34
2023-05-22T23:46:24.276Z,100471.19
2023-05-22T23:48:52.074Z,100464.09
2023-05-22T23:51:19.767Z,100469.22
2023-05-22T23:53:47.263Z,100469.09
2023-05-22T23:56:14.805Z,100473.88
2023-05-22T23:58:43.614Z,100475.09
